createdAt,value
2023-03-03T00:01:46.000Z,10.00
2023-03-03T00:04:14.339Z,9.10
2023-03-03T00:06:45.602Z,9.20
2023-03-03T00:09:13.787Z,9.60
2023-03-03T00:11:46.441Z,10.10
2023-03-03T00:14:23.315Z,10.70
2023-03-03T00:16:51.807Z,10.60
2023-03-03T00:19:20.582Z,10.60
2023-03-03T00:21:50.130Z,9.60
2023-03-03T00:24:21.537Z,9.80
2023-03-03T00:26:51.658Z,9.50
2023-03-03T00:29:31.102Z,10.00
2023-03-03T00:32:15.805Z,10.30
2023-03-03T00:34:44.575Z,11.40
2023-03-03T00:37:32.295Z,9.70
2023-03-03T00:40:24.204Z,9.80
2023-03-03T00:42:57.193Z,10.70
2023-03-03T00:45:50.599Z,9.90
2023-03-03T00:48:21.700Z,9.50
2023-03-03T00:50:50.896Z,10.80
2023-03-03T00:53:20.436Z,10.80
2023-03-03T00:55:50.113Z,10.00
2023-03-03T00:58:22.084Z,10.20
2023-03-03T01:00:52.701Z,9.90
2023-03-03T01:03:25.104Z,11.90
2023-03-03T01:05:53.881Z,12.10
2023-03-03T01:08:22.546Z,12.60
2023-03-03T01:10:56.990Z,11.80
2023-03-03T01:13:33.541Z,11.30
2023-03-03T01:16:02.270Z,12.30
2023-03-03T01:18:31.522Z,11.20
2023-03-03T01:20:59.900Z,11.50
2023-03-03T01:23:29.300Z,11.90
2023-03-03T01:25:58.307Z,13.40
2023-03-03T01:28:26.672Z,11.70
2023-03-03T01:30:55.397Z,11.80
2023-03-03T01:33:23.837Z,11.90
2023-03-03T01:35:52.493Z,13.90
2023-03-03T01:38:20.937Z,14.10
2023-03-03T01:40:59.529Z,13.30
2023-03-03T01:43:31.296Z,12.60
2023-03-03T01:45:59.762Z,13.30
2023-03-03T01:48:34.492Z,13.40
2023-03-03T01:51:05.833Z,13.90
2023-03-03T01:53:55.298Z,13.40
2023-03-03T01:56:23.691Z,14.30
2023-03-03T01:58:53.527Z,13.90
2023-03-03T02:01:25.122Z,13.70
2023-03-03T02:03:56.196Z,13.60
2023-03-03T02:06:28.257Z,13.80
2023-03-03T02:11:29.000Z,14.50
2023-03-03T02:13:57.381Z,13.90
2023-03-03T02:16:29.781Z,12.40
2023-03-03T02:18:58.438Z,13.40
2023-03-03T02:21:28.051Z,13.80
2023-03-03T02:24:20.898Z,13.30
2023-03-03T02:26:56.456Z,13.20
2023-03-03T02:29:25.050Z,13.00
2023-03-03T02:31:54.223Z,13.40
2023-03-03T02:34:23.219Z,12.80
2023-03-03T02:36:52.007Z,13.20
2023-03-03T02:39:23.055Z,12.80
2023-03-03T02:42:12.727Z,13.50
2023-03-03T02:44:48.583Z,14.30
2023-03-03T02:47:17.889Z,14.80
2023-03-03T02:49:46.670Z,14.80
2023-03-03T02:52:18.315Z,13.70
2023-03-03T02:54:47.926Z,14.60
2023-03-03T02:57:16.812Z,14.70
2023-03-03T02:59:45.124Z,14.60
2023-03-03T03:02:15.410Z,14.10
2023-03-03T03:04:43.727Z,16.00
2023-03-03T03:07:15.138Z,14.60
2023-03-03T03:09:46.488Z,14.40
2023-03-03T03:12:16.293Z,14.90
2023-03-03T03:14:45.199Z,14.20
2023-03-03T03:17:14.083Z,14.90
2023-03-03T03:19:42.760Z,15.90
2023-03-03T03:22:11.239Z,16.20
2023-03-03T03:24:40.334Z,14.50
2023-03-03T03:27:10.071Z,14.60
2023-03-03T03:29:39.956Z,15.00
2023-03-03T03:32:09.486Z,13.20
2023-03-03T03:34:38.759Z,15.30
2023-03-03T03:37:10.108Z,14.40
2023-03-03T03:39:59.069Z,14.90
2023-03-03T03:42:28.678Z,14.40
2023-03-03T03:44:58.496Z,14.30
2023-03-03T03:47:28.093Z,13.90
2023-03-03T03:49:57.193Z,14.10
2023-03-03T03:52:25.774Z,14.40
2023-03-03T03:54:54.463Z,15.00
2023-03-03T03:57:24.508Z,13.70
2023-03-03T04:00:15.183Z,14.30
2023-03-03T04:02:45.896Z,14.20
2023-03-03T04:05:15.930Z,14.90
2023-03-03T04:07:44.535Z,14.30
2023-03-03T04:10:13.197Z,14.10
2023-03-03T04:12:42.228Z,14.80
2023-03-03T04:15:16.521Z,13.90
2023-03-03T04:17:46.223Z,13.80
2023-03-03T04:20:16.139Z,14.40
2023-03-03T04:22:45.331Z,13.10
2023-03-03T04:25:15.630Z,14.00
2023-03-03T04:27:44.649Z,14.60
2023-03-03T04:30:14.980Z,14.90
2023-03-03T04:32:44.168Z,16.00
2023-03-03T04:35:13.581Z,16.00
2023-03-03T04:37:43.901Z,15.70
2023-03-03T04:40:12.787Z,16.60
2023-03-03T04:42:42.154Z,17.60
2023-03-03T04:45:15.069Z,16.10
2023-03-03T04:47:44.269Z,16.90
2023-03-03T04:50:13.157Z,18.00
2023-03-03T04:52:43.907Z,17.40
2023-03-03T04:55:14.523Z,19.40
2023-03-03T04:57:43.475Z,21.20
2023-03-03T05:00:15.939Z,19.80
2023-03-03T05:02:48.154Z,19.90
2023-03-03T05:05:19.839Z,19.00
2023-03-03T05:07:48.292Z,18.30
2023-03-03T05:10:16.772Z,17.30
2023-03-03T05:12:45.114Z,17.50
2023-03-03T05:18:38.623Z,17.40
2023-03-03T05:21:07.413Z,18.40
2023-03-03T05:23:36.711Z,17.20
2023-03-03T05:26:05.708Z,17.90
2023-03-03T05:28:34.087Z,16.30
2023-03-03T05:31:02.475Z,16.00
2023-03-03T05:33:31.653Z,15.40
2023-03-03T05:36:00.047Z,15.60
2023-03-03T05:38:31.900Z,14.40
2023-03-03T05:41:00.453Z,14.00
2023-03-03T05:43:29.470Z,13.40
2023-03-03T05:45:58.665Z,15.70
2023-03-03T05:48:27.963Z,13.00
2023-03-03T05:50:59.715Z,13.40
2023-03-03T05:53:28.719Z,13.80
2023-03-03T05:55:57.616Z,13.40
2023-03-03T05:58:30.589Z,13.10
2023-03-03T06:00:59.994Z,13.70
2023-03-03T06:03:29.097Z,13.30
2023-03-03T06:05:57.878Z,12.90
2023-03-03T06:08:27.383Z,12.10
2023-03-03T06:10:55.761Z,12.50
2023-03-03T06:13:24.548Z,12.40
2023-03-03T06:15:53.501Z,13.20
2023-03-03T06:18:23.363Z,13.20
2023-03-03T06:20:55.334Z,13.80
2023-03-03T06:23:23.809Z,12.20
2023-03-03T06:25:53.505Z,11.90
2023-03-03T06:28:21.995Z,12.40
2023-03-03T06:30:53.739Z,11.30
2023-03-03T06:33:23.991Z,10.90
2023-03-03T06:35:52.896Z,11.90
2023-03-03T06:38:21.813Z,12.10
2023-03-03T06:40:50.258Z,11.40
2023-03-03T06:43:18.706Z,11.60
2023-03-03T06:45:47.362Z,12.60
2023-03-03T06:48:22.013Z,12.00
2023-03-03T06:50:51.313Z,11.40
2023-03-03T06:53:19.902Z,11.90
2023-03-03T06:55:48.792Z,12.20
2023-03-03T06:58:19.237Z,11.80
2023-03-03T07:00:56.837Z,11.70
2023-03-03T07:03:28.468Z,11.00
2023-03-03T07:05:57.560Z,11.20
2023-03-03T07:08:26.149Z,11.80
2023-03-03T07:10:55.545Z,11.50
2023-03-03T07:13:29.051Z,11.10
2023-03-03T07:15:59.383Z,11.70
2023-03-03T07:18:37.787Z,11.50
2023-03-03T07:21:19.880Z,10.80
2023-03-03T07:23:50.105Z,12.20
2023-03-03T07:26:20.539Z,11.70
2023-03-03T07:28:56.396Z,12.00
2023-03-03T07:31:38.701Z,11.30
2023-03-03T07:34:39.641Z,11.70
2023-03-03T07:37:17.644Z,12.10
2023-03-03T07:39:46.442Z,12.30
2023-03-03T07:42:22.237Z,11.80
2023-03-03T07:44:57.975Z,11.30
2023-03-03T07:47:34.726Z,11.00
2023-03-03T07:50:29.417Z,11.20
2023-03-03T07:52:59.794Z,11.70
2023-03-03T07:55:36.305Z,10.60
2023-03-03T07:58:16.863Z,11.10
2023-03-03T08:01:05.001Z,10.40
2023-03-03T08:03:33.483Z,11.90
2023-03-03T08:06:10.364Z,11.50
2023-03-03T08:08:44.071Z,11.10
2023-03-03T08:11:12.346Z,11.50
2023-03-03T08:13:42.165Z,11.00
2023-03-03T08:16:10.456Z,11.20
2023-03-03T08:18:48.050Z,10.90
2023-03-03T08:21:23.153Z,11.00
2023-03-03T08:23:53.595Z,11.80
2023-03-03T08:26:22.269Z,12.40
2023-03-03T08:28:52.369Z,12.20
2023-03-03T08:31:39.792Z,11.20
2023-03-03T08:34:10.016Z,10.30
2023-03-03T08:36:42.590Z,9.90
2023-03-03T08:39:13.532Z,10.70
2023-03-03T08:41:44.173Z,10.60
2023-03-03T08:44:12.543Z,10.30
2023-03-03T08:46:41.188Z,8.80
2023-03-03T08:49:11.381Z,10.00
2023-03-03T08:51:39.922Z,9.60
2023-03-03T08:54:08.814Z,9.70
2023-03-03T08:56:37.911Z,8.90
2023-03-03T08:59:06.497Z,9.00
2023-03-03T09:01:40.180Z,9.70
2023-03-03T09:04:08.547Z,9.50
2023-03-03T09:06:37.877Z,8.00
2023-03-03T09:09:06.677Z,8.40
2023-03-03T09:11:35.858Z,8.60
2023-03-03T09:14:16.599Z,8.40
2023-03-03T09:16:54.632Z,7.70
2023-03-03T09:19:37.254Z,9.10
2023-03-03T09:22:22.926Z,8.00
2023-03-03T09:24:54.178Z,7.70
2023-03-03T09:27:32.688Z,8.50
2023-03-03T09:30:24.544Z,7.50
2023-03-03T09:32:54.021Z,8.10
2023-03-03T09:35:38.021Z,8.10
2023-03-03T09:38:33.490Z,7.20
2023-03-03T09:41:01.756Z,7.70
2023-03-03T09:43:50.414Z,7.60
2023-03-03T09:46:36.970Z,7.60
2023-03-03T09:49:20.568Z,7.70
2023-03-03T09:52:00.705Z,8.20
2023-03-03T09:54:56.219Z,7.50
2023-03-03T09:57:43.783Z,7.80
2023-03-03T10:00:16.133Z,7.20
2023-03-03T10:02:55.066Z,7.20
2023-03-03T10:05:51.781Z,7.50
2023-03-03T10:08:36.562Z,7.90
2023-03-03T10:11:11.268Z,9.00
2023-03-03T10:14:13.065Z,7.00
2023-03-03T10:16:50.235Z,7.00
2023-03-03T10:19:38.151Z,7.50
2023-03-03T10:22:12.600Z,7.50
2023-03-03T10:24:52.827Z,7.00
2023-03-03T10:27:46.903Z,7.60
2023-03-03T10:30:26.797Z,7.70
2023-03-03T10:33:20.062Z,7.10
2023-03-03T10:36:09.099Z,7.70
2023-03-03T10:39:05.531Z,7.10
2023-03-03T10:42:28.705Z,7.80
2023-03-03T10:45:38.492Z,7.50
2023-03-03T10:48:25.719Z,7.70
2023-03-03T10:51:25.485Z,6.90
2023-03-03T10:54:16.003Z,7.50
2023-03-03T10:57:06.658Z,7.80
2023-03-03T10:59:56.247Z,6.80
2023-03-03T11:02:36.824Z,7.40
2023-03-03T11:05:29.771Z,7.20
2023-03-03T11:08:04.336Z,6.70
2023-03-03T11:10:59.618Z,7.50
2023-03-03T11:13:40.994Z,7.10
2023-03-03T11:16:39.009Z,7.10
2023-03-03T11:19:13.566Z,6.90
2023-03-03T11:21:53.514Z,7.00
2023-03-03T11:24:25.415Z,7.40
2023-03-03T11:30:07.904Z,7.90
2023-03-03T11:32:49.800Z,7.50
2023-03-03T11:37:54.357Z,7.20
2023-03-03T11:40:36.950Z,8.00
2023-03-03T11:43:35.356Z,8.60
2023-03-03T11:46:13.558Z,8.30
2023-03-03T11:48:59.127Z,8.20
2023-03-03T11:51:33.033Z,8.00
2023-03-03T11:54:13.497Z,8.30
2023-03-03T11:56:44.350Z,8.00
2023-03-03T11:59:33.629Z,8.60
2023-03-03T12:02:08.013Z,8.70
2023-03-03T12:04:42.576Z,8.70
2023-03-03T12:07:37.741Z,8.60
2023-03-03T12:10:18.847Z,9.00
2023-03-03T12:13:03.278Z,8.30
2023-03-03T12:16:04.792Z,7.90
2023-03-03T12:18:47.339Z,7.90
2023-03-03T12:21:39.949Z,8.70
2023-03-03T12:24:39.185Z,8.70
2023-03-03T12:27:23.557Z,8.50
2023-03-03T12:29:59.494Z,8.50
2023-03-03T12:32:35.490Z,8.10
2023-03-03T12:35:21.277Z,7.30
2023-03-03T12:38:05.238Z,7.10
2023-03-03T12:40:36.277Z,7.70
2023-03-03T12:43:33.784Z,7.40
2023-03-03T12:46:15.187Z,6.90
2023-03-03T12:48:45.123Z,6.60
2023-03-03T12:51:34.418Z,6.40
2023-03-03T12:54:14.927Z,6.10
2023-03-03T12:56:50.154Z,6.10
2023-03-03T12:59:21.094Z,6.20
2023-03-03T13:02:04.841Z,5.40
2023-03-03T13:04:57.168Z,5.90
2023-03-03T13:07:46.401Z,5.30
2023-03-03T13:10:39.187Z,5.70
2023-03-03T13:13:17.188Z,4.90
2023-03-03T13:15:55.451Z,5.50
2023-03-03T13:18:31.154Z,5.40
2023-03-03T13:21:26.834Z,5.50
2023-03-03T13:24:00.702Z,5.80
2023-03-03T13:26:36.314Z,5.60
2023-03-03T13:29:14.325Z,5.30
2023-03-03T13:31:48.153Z,5.90
2023-03-03T13:34:34.636Z,6.40
2023-03-03T13:37:30.134Z,6.20
2023-03-03T13:40:16.758Z,5.30
2023-03-03T13:42:56.222Z,5.50
2023-03-03T13:45:36.254Z,5.60
2023-03-03T13:48:43.738Z,5.30
2023-03-03T13:51:32.491Z,5.70
2023-03-03T13:54:30.052Z,5.50
2023-03-03T13:57:24.954Z,5.60
2023-03-03T14:00:21.610Z,5.30
2023-03-03T14:03:18.548Z,5.50
2023-03-03T14:06:13.445Z,5.90
2023-03-03T14:08:54.720Z,4.80
2023-03-03T14:11:31.496Z,5.40
2023-03-03T14:14:09.521Z,5.10
2023-03-03T14:16:55.371Z,4.50
2023-03-03T14:19:35.038Z,4.80
2023-03-03T14:22:26.144Z,5.30
2023-03-03T14:25:06.927Z,5.00
2023-03-03T14:27:36.841Z,4.70
2023-03-03T14:30:29.910Z,5.50
2023-03-03T14:33:01.773Z,5.80
2023-03-03T14:35:33.028Z,5.40
2023-03-03T14:40:33.230Z,5.00
2023-03-03T14:43:02.530Z,5.40
2023-03-03T14:45:39.923Z,5.10
2023-03-03T14:48:11.782Z,4.80
2023-03-03T14:50:42.431Z,5.20
2023-03-03T14:53:14.575Z,5.20
2023-03-03T14:55:44.126Z,5.40
2023-03-03T14:58:42.056Z,5.50
2023-03-03T15:01:34.588Z,5.80
2023-03-03T15:04:04.417Z,5.70
2023-03-03T15:06:48.666Z,5.40
2023-03-03T15:09:37.826Z,5.60
2023-03-03T15:12:37.337Z,6.00
2023-03-03T15:15:30.258Z,5.70
2023-03-03T15:18:04.504Z,5.60
2023-03-03T15:20:37.794Z,6.40
2023-03-03T15:23:18.665Z,6.60
2023-03-03T15:26:14.076Z,6.20
2023-03-03T15:29:06.934Z,7.80
2023-03-03T15:31:54.793Z,7.10
2023-03-03T15:34:24.262Z,7.20
2023-03-03T15:36:58.699Z,7.90
2023-03-03T15:39:49.492Z,8.40
2023-03-03T15:42:35.851Z,7.80
2023-03-03T15:45:10.268Z,8.60
2023-03-03T15:47:42.989Z,8.10
2023-03-03T15:50:20.173Z,8.60
2023-03-03T15:52:54.487Z,8.80
2023-03-03T15:55:22.869Z,8.50
2023-03-03T15:58:00.567Z,10.10
2023-03-03T16:00:57.099Z,10.10
2023-03-03T16:03:36.646Z,12.80
2023-03-03T16:06:28.261Z,12.80
2023-03-03T16:09:03.305Z,12.20
2023-03-03T16:12:09.766Z,12.60
2023-03-03T16:14:52.623Z,15.00
2023-03-03T16:17:28.962Z,15.90
2023-03-03T16:20:23.337Z,19.60
2023-03-03T16:23:00.337Z,19.70
2023-03-03T16:25:32.312Z,16.50
2023-03-03T16:28:05.089Z,13.70
2023-03-03T16:30:35.078Z,13.30
2023-03-03T16:33:09.089Z,11.00
2023-03-03T16:35:40.000Z,11.40
2023-03-03T16:38:37.916Z,11.30
2023-03-03T16:41:11.401Z,11.60
2023-03-03T16:43:56.673Z,11.80
2023-03-03T16:46:45.530Z,12.10
2023-03-03T16:49:16.979Z,11.00
2023-03-03T16:54:36.080Z,10.80
2023-03-03T16:57:18.982Z,10.00
2023-03-03T17:00:06.504Z,9.50
2023-03-03T17:02:49.665Z,9.60
2023-03-03T17:05:24.662Z,9.60
2023-03-03T17:08:07.372Z,8.80
2023-03-03T17:10:35.757Z,9.00
2023-03-03T17:13:27.985Z,8.90
2023-03-03T17:16:14.749Z,9.00
2023-03-03T17:18:49.426Z,8.60
2023-03-03T17:21:29.165Z,9.20
2023-03-03T17:24:13.927Z,10.90
2023-03-03T17:27:27.951Z,14.70
2023-03-03T17:30:07.429Z,17.60
2023-03-03T17:33:02.320Z,22.30
2023-03-03T17:35:33.261Z,23.10
2023-03-03T17:38:11.664Z,25.00
2023-03-03T17:40:47.212Z,24.60
2023-03-03T17:43:22.347Z,25.00
2023-03-03T17:45:53.010Z,16.90
2023-03-03T17:48:46.344Z,16.50
2023-03-03T17:51:33.460Z,18.20
2023-03-03T17:54:19.862Z,15.50
2023-03-03T17:57:25.620Z,13.00
2023-03-03T18:00:03.930Z,11.60
2023-03-03T18:02:42.298Z,9.90
2023-03-03T18:05:26.085Z,10.60
2023-03-03T18:08:21.293Z,10.10
2023-03-03T18:11:27.774Z,9.30
2023-03-03T18:14:24.098Z,10.50
2023-03-03T18:17:40.503Z,9.50
2023-03-03T18:20:21.986Z,10.80
2023-03-03T18:25:57.550Z,10.40
2023-03-03T18:28:46.014Z,10.80
2023-03-03T18:31:27.418Z,11.80
2023-03-03T18:34:09.695Z,11.70
2023-03-03T18:36:57.619Z,11.20
2023-03-03T18:39:46.218Z,11.20
2023-03-03T18:42:17.324Z,10.70
2023-03-03T18:44:46.000Z,10.50
2023-03-03T18:47:15.399Z,10.40
2023-03-03T18:50:14.604Z,11.20
2023-03-03T18:53:08.483Z,13.20
2023-03-03T18:55:48.137Z,17.20
2023-03-03T18:58:16.323Z,15.70
2023-03-03T19:00:52.264Z,14.20
2023-03-03T19:03:49.609Z,14.70
2023-03-03T19:06:50.137Z,12.50
2023-03-03T19:09:58.927Z,11.90
2023-03-03T19:12:53.241Z,11.80
2023-03-03T19:15:29.957Z,11.40
2023-03-03T19:17:59.421Z,11.40
2023-03-03T19:20:38.366Z,11.10
2023-03-03T19:23:28.535Z,10.90
2023-03-03T19:26:25.069Z,10.70
2023-03-03T19:28:59.392Z,11.80
2023-03-03T19:31:37.567Z,12.20
2023-03-03T19:34:08.023Z,12.30
2023-03-03T19:36:50.534Z,11.60
2023-03-03T19:39:22.600Z,11.10
2023-03-03T19:44:47.722Z,13.60
2023-03-03T19:47:21.733Z,13.30
2023-03-03T19:49:53.958Z,12.20
2023-03-03T19:52:42.654Z,11.70
2023-03-03T19:55:35.198Z,11.20
2023-03-03T19:58:18.730Z,11.20
2023-03-03T20:00:57.146Z,12.60
2023-03-03T20:03:47.957Z,12.50
2023-03-03T20:06:34.666Z,13.30
2023-03-03T20:09:16.260Z,13.70
2023-03-03T20:11:57.018Z,14.70
2023-03-03T20:14:46.160Z,13.80
2023-03-03T20:17:30.952Z,14.00
2023-03-03T20:20:07.508Z,13.70
2023-03-03T20:22:40.907Z,15.80
2023-03-03T20:25:18.198Z,14.80
2023-03-03T20:28:14.643Z,14.30
2023-03-03T20:31:10.633Z,14.70
2023-03-03T20:34:08.319Z,14.10
2023-03-03T20:37:04.272Z,15.30
2023-03-03T20:40:09.381Z,14.70
2023-03-03T20:42:47.795Z,14.70
2023-03-03T20:45:16.991Z,13.50
2023-03-03T20:48:03.912Z,13.20
2023-03-03T20:50:54.303Z,15.30
2023-03-03T20:53:48.075Z,14.00
2023-03-03T20:56:32.733Z,14.40
2023-03-03T20:59:14.324Z,14.90
2023-03-03T21:01:49.954Z,14.90
2023-03-03T21:04:20.224Z,14.30
2023-03-03T21:06:48.805Z,14.10
2023-03-03T21:09:27.542Z,13.90
2023-03-03T21:11:56.594Z,14.50
2023-03-03T21:14:38.600Z,15.20
2023-03-03T21:17:28.175Z,14.90
2023-03-03T21:20:17.844Z,14.80
2023-03-03T21:22:46.732Z,15.40
2023-03-03T21:25:40.296Z,14.30
2023-03-03T21:28:21.305Z,14.50
2023-03-03T21:31:01.981Z,15.50
2023-03-03T21:33:47.004Z,14.70
2023-03-03T21:36:17.967Z,14.40
2023-03-03T21:38:46.934Z,14.40
2023-03-03T21:41:16.494Z,14.70
2023-03-03T21:43:46.490Z,14.00
2023-03-03T21:46:18.977Z,15.50
2023-03-03T21:48:47.305Z,14.90
2023-03-03T21:51:21.644Z,14.80
2023-03-03T21:53:49.899Z,15.60
2023-03-03T21:56:18.380Z,14.60
2023-03-03T21:58:47.243Z,13.90
2023-03-03T22:01:15.628Z,14.60
2023-03-03T22:03:45.889Z,15.50
2023-03-03T22:06:14.257Z,15.20
2023-03-03T22:08:47.752Z,15.00
2023-03-03T22:11:16.141Z,15.50
2023-03-03T22:13:44.606Z,15.20
2023-03-03T22:16:13.101Z,16.30
2023-03-03T22:18:42.079Z,15.50
2023-03-03T22:21:10.779Z,15.50
2023-03-03T22:23:40.139Z,16.80
2023-03-03T22:26:08.441Z,15.70
2023-03-03T22:28:36.722Z,16.10
2023-03-03T22:31:05.381Z,15.90
2023-03-03T22:33:38.395Z,15.70
2023-03-03T22:36:08.457Z,15.40
2023-03-03T22:38:37.742Z,16.80
2023-03-03T22:41:08.760Z,16.00
2023-03-03T22:43:37.446Z,16.40
2023-03-03T22:46:05.874Z,16.80
2023-03-03T22:48:34.708Z,18.70
2023-03-03T22:51:03.293Z,17.60
2023-03-03T22:53:46.756Z,18.40
2023-03-03T22:56:15.612Z,17.50
2023-03-03T22:58:44.602Z,18.30
2023-03-03T23:01:15.437Z,18.90
2023-03-03T23:03:43.828Z,18.90
2023-03-03T23:06:12.292Z,19.40
2023-03-03T23:08:41.293Z,19.80
2023-03-03T23:11:09.815Z,21.70
2023-03-03T23:13:38.242Z,20.50
2023-03-03T23:16:07.283Z,19.60
2023-03-03T23:18:35.613Z,21.90
2023-03-03T23:21:04.029Z,22.30
2023-03-03T23:23:32.443Z,21.00
2023-03-03T23:26:01.260Z,22.00
2023-03-03T23:28:30.355Z,20.70
2023-03-03T23:30:58.737Z,22.00
2023-03-03T23:33:27.142Z,23.00
2023-03-03T23:35:55.567Z,24.90
2023-03-03T23:38:24.682Z,25.10
2023-03-03T23:40:53.574Z,24.90
2023-03-03T23:43:24.001Z,24.50
2023-03-03T23:45:52.483Z,24.90
2023-03-03T23:48:23.527Z,24.30
2023-03-03T23:50:52.324Z,24.00
2023-03-03T23:53:20.691Z,22.00
2023-03-03T23:55:49.372Z,22.90
2023-03-03T23:58:18.079Z,22.00
